Time;durP1;ratioP1;P1;durP2;ratioP2;P2;SDS_P1;SDS_P2;PMS_P1;PMS_P2;Temp;Humidity;BMP_temperature;BMP_pressure;BME280_temperature;BME280_humidity;BME280_pressure;Samples;Min_cycle;Max_cycle;Signal;HPM_P1;HPM_P2
2022/01/28 00:01:53;;;;;;;2.37;0.90;;;19.70;81.90;;;;;;5097790;28;20474;-72
2022/01/28 00:04:19;;;;;;;1.93;1.13;;;19.70;81.70;;;;;;5098220;28;20420;-71
2022/01/28 00:06:45;;;;;;;1.60;1.03;;;19.70;82.10;;;;;;5097947;28;20421;-71
2022/01/28 00:09:11;;;;;;;1.60;0.90;;;19.70;82.10;;;;;;5097658;28;20221;-71
2022/01/28 00:11:37;;;;;;;1.30;0.80;;;19.80;82.10;;;;;;5097351;28;20199;-71
2022/01/28 00:14:53;;;;;;;2.10;1.10;;;19.80;82.20;;;;;;5097946;28;20167;-72
2022/01/28 00:17:26;;;;;;;1.50;1.00;;;19.80;82.00;;;;;;5101600;28;20504;-72
2022/01/28 00:39:01;;;;;;;1.10;0.70;;;19.80;81.90;;;;;;5116444;28;20554;-74
2022/01/28 00:41:27;;;;;;;1.30;0.90;;;19.80;82.20;;;;;;5098246;28;20527;-71
2022/01/28 00:43:53;;;;;;;6.40;0.80;;;19.80;82.50;;;;;;5098126;28;20535;-70
2022/01/28 00:46:18;;;;;;;18.80;1.30;;;19.90;83.00;;;;;;5098373;28;20171;-73
2022/01/28 00:48:44;;;;;;;11.23;0.90;;;19.90;82.80;;;;;;5097980;28;20283;-69
2022/01/28 00:51:09;;;;;;;18.73;1.10;;;19.90;82.40;;;;;;5098108;28;20195;-71
2022/01/28 00:53:35;;;;;;;10.67;1.30;;;19.90;82.80;;;;;;5097742;28;20179;-71
2022/01/28 00:56:01;;;;;;;16.07;1.17;;;19.90;82.80;;;;;;5098191;28;20632;-72
2022/01/28 00:58:26;;;;;;;4.37;1.03;;;19.80;82.50;;;;;;5098322;28;20213;-77
2022/01/28 01:00:52;;;;;;;4.70;1.00;;;19.80;83.10;;;;;;5097876;28;20597;-76
2022/01/28 01:03:18;;;;;;;14.87;1.13;;;19.80;82.80;;;;;;5116392;28;20291;-75
2022/01/28 01:05:43;;;;;;;6.97;0.83;;;19.80;83.00;;;;;;5098071;28;20178;-76
2022/01/28 01:08:09;;;;;;;4.60;0.90;;;19.80;82.80;;;;;;5097001;28;20199;-74
2022/01/28 01:10:37;;;;;;;1.67;0.87;;;19.90;83.00;;;;;;5097722;28;20227;-74
2022/01/28 01:13:04;;;;;;;4.50;1.07;;;19.80;82.50;;;;;;5115923;28;20159;-72
2022/01/28 01:15:35;;;;;;;6.80;0.83;;;19.80;82.70;;;;;;5098049;28;20405;-77
2022/01/28 01:18:09;;;;;;;3.00;0.77;;;19.80;82.70;;;;;;5098064;28;20420;-74
2022/01/28 01:23:15;;;;;;;3.23;0.90;;;19.80;82.60;;;;;;5116072;28;20396;-79
2022/01/28 01:25:50;;;;;;;1.30;0.70;;;19.80;82.70;;;;;;5097754;28;20409;-77
2022/01/28 01:28:22;;;;;;;2.07;0.80;;;19.80;82.70;;;;;;5097916;28;20460;-80
2022/01/28 01:30:48;;;;;;;1.47;0.80;;;19.80;82.80;;;;;;5097569;28;20432;-78
2022/01/28 01:33:18;;;;;;;2.93;0.80;;;19.80;83.00;;;;;;5097419;28;20409;-77
2022/01/28 01:35:44;;;;;;;2.70;1.00;;;19.80;82.70;;;;;;5097316;28;20435;-75
2022/01/28 01:38:10;;;;;;;2.03;0.73;;;19.80;82.90;;;;;;5097319;28;20909;-76
2022/01/28 01:40:50;;;;;;;1.33;0.90;;;19.80;82.80;;;;;;5097250;28;20325;-75
2022/01/28 01:53:41;;;;;;;3.83;1.27;;;19.80;82.60;;;;;;5115077;28;20765;-73
2022/01/28 01:56:07;;;;;;;1.63;1.03;;;19.80;83.10;;;;;;5097055;28;20413;-72
2022/01/28 01:58:34;;;;;;;1.80;0.90;;;19.80;83.30;;;;;;5096931;28;20228;-74
2022/01/28 02:01:01;;;;;;;3.10;0.80;;;19.80;83.20;;;;;;5096844;28;20441;-72
2022/01/28 02:03:27;;;;;;;1.40;0.80;;;19.80;82.90;;;;;;5096268;28;20421;-74
2022/01/28 02:05:59;;;;;;;1.53;0.97;;;19.80;83.20;;;;;;5096810;28;20457;-73
2022/01/28 02:08:26;;;;;;;1.33;0.93;;;19.80;83.00;;;;;;5096627;28;20457;-73
2022/01/28 02:10:57;;;;;;;1.20;0.80;;;19.80;83.30;;;;;;5096700;28;20472;-73
2022/01/28 02:13:26;;;;;;;1.20;0.80;;;19.80;83.30;;;;;;5096101;28;20966;-73
2022/01/28 02:15:53;;;;;;;2.30;1.10;;;19.80;83.40;;;;;;5096668;28;20492;-72
2022/01/28 02:18:22;;;;;;;1.80;1.00;;;19.80;83.20;;;;;;5096592;28;20775;-73
2022/01/28 02:20:49;;;;;;;2.90;0.90;;;19.80;83.20;;;;;;5114154;28;20449;-72
2022/01/28 02:23:15;;;;;;;1.23;0.80;;;19.80;83.20;;;;;;5096197;28;20981;-71
2022/01/28 02:25:41;;;;;;;1.10;0.60;;;19.80;83.40;;;;;;5095699;28;20417;-73
2022/01/28 02:28:10;;;;;;;1.33;0.80;;;19.80;83.30;;;;;;5096378;28;20198;-73
2022/01/28 02:30:36;;;;;;;3.00;0.80;;;19.90;83.30;;;;;;5096134;28;20440;-72
2022/01/28 02:33:10;;;;;;;1.30;0.77;;;19.80;83.40;;;;;;5095904;28;20420;-72
2022/01/28 02:35:38;;;;;;;1.83;0.90;;;19.80;82.90;;;;;;5096466;28;20179;-72
2022/01/28 02:38:03;;;;;;;1.87;0.87;;;19.80;83.20;;;;;;5095980;28;20416;-72
2022/01/28 02:40:30;;;;;;;1.17;0.70;;;19.80;82.80;;;;;;5096126;28;20433;-73
2022/01/28 02:43:03;;;;;;;1.97;1.27;;;19.80;83.10;;;;;;5095856;28;20218;-72
2022/01/28 02:45:34;;;;;;;2.90;0.97;;;19.80;82.60;;;;;;5096143;28;20424;-72
2022/01/28 02:48:07;;;;;;;6.40;0.70;;;19.70;82.80;;;;;;5096004;28;20986;-72
2022/01/28 02:50:44;;;;;;;1.30;0.60;;;19.70;82.90;;;;;;5095523;28;20521;-72
2022/01/28 02:53:20;;;;;;;2.23;0.70;;;19.70;82.90;;;;;;5095697;28;20419;-72
2022/01/28 02:55:46;;;;;;;2.13;0.80;;;19.70;83.30;;;;;;5095996;28;20437;-71
2022/01/28 02:58:18;;;;;;;1.80;0.93;;;19.70;83.20;;;;;;5095977;28;20506;-72
2022/01/28 03:00:46;;;;;;;1.10;0.70;;;19.80;83.30;;;;;;5095750;28;20194;-72
2022/01/28 03:03:12;;;;;;;2.00;1.00;;;19.80;83.00;;;;;;5095178;28;20785;-70
2022/01/28 03:05:38;;;;;;;3.23;0.80;;;19.80;83.10;;;;;;5095794;28;20991;-74
2022/01/28 03:08:05;;;;;;;1.57;0.90;;;19.80;83.30;;;;;;5095725;28;20555;-70
2022/01/28 03:15:35;;;;;;;3.50;0.87;;;19.80;82.80;;;;;;5113642;28;20465;-73
2022/01/28 03:18:16;;;;;;;2.23;0.93;;;19.80;83.20;;;;;;5095434;28;20470;-70
2022/01/28 03:20:58;;;;;;;1.40;0.80;;;19.70;83.10;;;;;;5095239;28;20470;-73
2022/01/28 03:23:24;;;;;;;1.10;0.70;;;19.70;83.00;;;;;;5095276;28;20417;-70
2022/01/28 03:25:50;;;;;;;1.30;1.00;;;19.80;83.30;;;;;;5095321;28;20432;-74
2022/01/28 03:28:19;;;;;;;1.97;0.90;;;19.80;82.90;;;;;;5095098;28;20297;-72
2022/01/28 03:30:45;;;;;;;1.20;0.73;;;19.80;83.40;;;;;;5095094;28;20460;-72
2022/01/28 03:33:11;;;;;;;1.80;0.90;;;19.70;83.10;;;;;;5094293;28;20448;-72
2022/01/28 03:35:36;;;;;;;1.60;0.90;;;19.70;83.20;;;;;;5095450;28;20420;-72
2022/01/28 03:38:06;;;;;;;1.40;0.77;;;19.70;83.40;;;;;;5095257;28;20282;-72
2022/01/28 03:40:35;;;;;;;1.90;0.97;;;19.80;83.40;;;;;;5094773;28;20247;-72
2022/01/28 03:43:02;;;;;;;1.83;0.87;;;19.80;83.30;;;;;;5094821;28;20456;-72
2022/01/28 03:45:28;;;;;;;1.50;0.87;;;19.80;83.20;;;;;;5095280;28;20409;-72
2022/01/28 03:47:54;;;;;;;1.40;0.90;;;19.80;83.00;;;;;;5095190;28;20533;-73
2022/01/28 03:50:20;;;;;;;1.93;0.93;;;19.80;82.90;;;;;;5094960;28;20273;-73
2022/01/28 03:52:45;;;;;;;1.70;0.87;;;19.80;83.00;;;;;;5094424;28;20853;-73
2022/01/28 03:55:11;;;;;;;1.17;0.70;;;19.70;83.10;;;;;;5095133;28;20183;-74
2022/01/28 03:57:37;;;;;;;1.53;0.90;;;19.70;83.00;;;;;;5095022;28;20190;-74
2022/01/28 04:00:05;;;;;;;1.10;0.70;;;19.70;83.20;;;;;;5094989;28;20555;-76
2022/01/28 04:02:34;;;;;;;7.77;0.93;;;19.80;83.20;;;;;;5094681;28;20423;-74
2022/01/28 04:12:56;;;;;;;2.80;0.70;;;19.80;82.70;;;;;;5112982;28;20765;-72
2022/01/28 04:17:51;;;;;;;1.33;0.70;;;19.70;83.00;;;;;;5113098;28;20611;-75
2022/01/28 04:20:17;;;;;;;1.43;0.80;;;19.70;82.80;;;;;;5094540;28;20461;-73
2022/01/28 04:22:43;;;;;;;7.23;1.00;;;19.80;83.00;;;;;;5094456;28;20417;-72
2022/01/28 04:25:09;;;;;;;1.40;0.80;;;19.80;83.40;;;;;;5094765;28;20456;-72
2022/01/28 04:27:35;;;;;;;1.83;0.80;;;19.80;83.50;;;;;;5094743;28;20193;-72
2022/01/28 04:30:01;;;;;;;2.90;0.80;;;19.80;83.40;;;;;;5094443;28;20435;-76
2022/01/28 04:32:28;;;;;;;1.20;0.77;;;19.80;83.40;;;;;;5094608;28;20171;-72
2022/01/28 04:34:55;;;;;;;1.20;0.80;;;19.80;83.20;;;;;;5094713;28;20915;-72
2022/01/28 04:39:55;;;;;;;1.60;0.90;;;19.80;83.10;;;;;;5112764;28;20428;-72
2022/01/28 04:42:53;;;;;;;1.20;0.80;;;19.80;83.40;;;;;;5094326;28;20442;-72
2022/01/28 04:45:35;;;;;;;1.40;0.80;;;19.80;83.30;;;;;;5098591;28;20427;-72
2022/01/28 04:48:21;;;;;;;1.70;0.70;;;19.80;83.00;;;;;;5098344;28;20976;-75
2022/01/28 04:56:02;;;;;;;2.77;0.90;;;19.80;83.30;;;;;;5116755;28;20670;-72
2022/01/28 04:58:42;;;;;;;1.40;0.80;;;19.80;83.00;;;;;;5098484;28;20416;-73
2022/01/28 05:03:55;;;;;;;1.20;0.80;;;19.80;83.20;;;;;;5116493;28;20405;-72
2022/01/28 05:06:55;;;;;;;1.30;0.80;;;19.80;83.00;;;;;;5097846;28;20409;-72
2022/01/28 05:09:41;;;;;;;1.73;0.80;;;19.80;82.80;;;;;;5115934;28;20460;-72
2022/01/28 05:12:50;;;;;;;3.17;0.80;;;19.80;82.90;;;;;;5097681;28;20415;-72
2022/01/28 05:28:07;;;;;;;3.20;1.30;;;19.90;82.90;;;;;;5115868;28;20468;-72
2022/01/28 05:30:32;;;;;;;3.40;1.53;;;19.90;83.00;;;;;;5097067;28;20195;-72
2022/01/28 05:32:58;;;;;;;3.07;1.60;;;19.90;83.10;;;;;;5097222;28;20181;-72
2022/01/28 05:35:23;;;;;;;4.07;1.90;;;19.90;83.10;;;;;;5097424;28;20171;-73
2022/01/28 05:37:49;;;;;;;3.70;2.30;;;19.90;83.20;;;;;;5097507;28;20615;-73
2022/01/28 05:40:15;;;;;;;4.37;1.97;;;19.90;83.00;;;;;;5097284;28;20532;-73
2022/01/28 05:42:40;;;;;;;4.37;2.00;;;20.00;83.40;;;;;;5096730;28;20627;-73
2022/01/28 05:45:07;;;;;;;3.47;2.40;;;20.00;83.10;;;;;;5097295;28;20244;-73
2022/01/28 05:47:35;;;;;;;4.07;2.27;;;20.00;83.00;;;;;;5097344;28;20179;-73
2022/01/28 05:50:02;;;;;;;3.93;2.53;;;20.00;82.90;;;;;;5096983;28;20432;-72
2022/01/28 05:52:30;;;;;;;5.10;2.60;;;20.00;82.80;;;;;;5097054;28;20416;-73
2022/01/28 05:54:56;;;;;;;11.80;3.20;;;20.00;83.00;;;;;;5096014;28;20420;-75
2022/01/28 05:57:22;;;;;;;4.60;3.00;;;20.00;83.30;;;;;;5097401;28;20785;-74
2022/01/28 05:59:47;;;;;;;8.63;4.20;;;20.00;84.20;;;;;;5096831;28;20657;-73
2022/01/28 06:02:13;;;;;;;7.30;4.10;;;20.10;83.30;;;;;;5096787;28;20182;-78
2022/01/28 06:04:39;;;;;;;7.43;4.67;;;20.10;83.20;;;;;;5096734;28;20186;-72
2022/01/28 06:07:05;;;;;;;10.67;4.70;;;20.00;83.00;;;;;;5096634;28;20175;-74
2022/01/28 06:09:31;;;;;;;11.10;4.53;;;20.10;83.00;;;;;;5096618;28;21975;-74
2022/01/28 06:11:57;;;;;;;15.47;4.30;;;20.10;83.00;;;;;;5096156;28;20413;-76
2022/01/28 06:14:22;;;;;;;9.87;3.97;;;20.10;83.20;;;;;;5096726;28;20178;-72
2022/01/28 06:16:48;;;;;;;12.70;5.00;;;20.10;83.10;;;;;;5096858;28;20200;-73
2022/01/28 06:19:13;;;;;;;7.97;4.00;;;20.10;82.70;;;;;;5096078;28;20187;-73
2022/01/28 06:21:40;;;;;;;7.00;4.10;;;20.10;82.90;;;;;;5095992;28;20199;-73
2022/01/28 06:24:06;;;;;;;8.60;4.00;;;20.10;82.60;;;;;;5113853;28;20216;-71
2022/01/28 06:26:31;;;;;;;7.50;4.80;;;20.10;82.60;;;;;;5096458;28;20428;-72
2022/01/28 06:28:57;;;;;;;6.77;4.00;;;20.10;82.70;;;;;;5096223;28;20452;-72
2022/01/28 06:31:23;;;;;;;14.10;4.17;;;20.10;82.60;;;;;;5095788;28;20289;-73
2022/01/28 06:33:49;;;;;;;7.13;4.13;;;20.10;82.70;;;;;;5095814;28;20178;-72
2022/01/28 06:36:15;;;;;;;8.20;4.20;;;20.10;82.70;;;;;;5095828;28;20174;-74
2022/01/28 06:38:41;;;;;;;11.13;4.63;;;20.10;82.90;;;;;;5095756;28;20419;-72
2022/01/28 06:41:07;;;;;;;10.13;4.17;;;20.10;82.70;;;;;;5095596;28;20524;-76
2022/01/28 06:43:32;;;;;;;13.10;4.20;;;20.10;83.00;;;;;;5095203;28;20189;-72
2022/01/28 06:45:58;;;;;;;12.97;4.30;;;20.10;82.80;;;;;;5095858;28;20171;-73
2022/01/28 06:48:24;;;;;;;11.00;4.30;;;20.10;83.00;;;;;;5095901;28;20213;-72
2022/01/28 06:50:49;;;;;;;5.10;3.20;;;20.10;83.30;;;;;;5095978;28;20195;-71
2022/01/28 06:53:16;;;;;;;5.10;3.57;;;20.00;83.10;;;;;;5095797;28;20181;-72
2022/01/28 06:55:42;;;;;;;7.53;3.67;;;20.00;83.20;;;;;;5095561;28;20267;-77
2022/01/28 06:58:09;;;;;;;7.33;3.90;;;20.10;82.90;;;;;;5096039;28;20546;-73
2022/01/28 07:00:39;;;;;;;9.70;4.17;;;20.10;83.20;;;;;;5095928;28;20444;-73
2022/01/28 07:03:07;;;;;;;6.43;3.73;;;20.00;83.10;;;;;;5095617;28;20444;-74
2022/01/28 07:05:33;;;;;;;8.20;3.53;;;20.00;83.10;;;;;;5095902;28;20412;-72
2022/01/28 07:07:59;;;;;;;6.97;3.43;;;20.10;83.20;;;;;;5095210;28;20460;-72
2022/01/28 07:10:24;;;;;;;10.93;4.13;;;20.10;83.10;;;;;;5095567;28;20536;-72
2022/01/28 07:12:50;;;;;;;7.07;3.63;;;20.10;82.90;;;;;;5095377;28;20409;-72
2022/01/28 07:15:16;;;;;;;6.80;3.30;;;20.10;82.80;;;;;;5095561;28;20182;-73
2022/01/28 07:17:42;;;;;;;5.17;3.10;;;20.10;82.90;;;;;;5095872;28;20182;-71
2022/01/28 07:20:08;;;;;;;12.00;3.33;;;20.10;83.10;;;;;;5094961;28;20260;-72
2022/01/28 07:22:34;;;;;;;17.00;3.43;;;20.10;83.30;;;;;;5095389;28;20227;-72
2022/01/28 07:25:00;;;;;;;8.20;3.30;;;20.00;83.00;;;;;;5095494;28;20413;-72
2022/01/28 07:27:25;;;;;;;10.20;3.70;;;20.10;83.00;;;;;;5095377;28;20536;-72
2022/01/28 07:29:51;;;;;;;5.37;3.03;;;20.10;83.10;;;;;;5095263;28;20195;-71
2022/01/28 07:32:17;;;;;;;5.47;3.23;;;20.00;82.90;;;;;;5094698;28;20186;-71
2022/01/28 07:34:43;;;;;;;4.73;2.40;;;20.00;82.90;;;;;;5095497;28;20638;-71
2022/01/28 07:37:09;;;;;;;8.13;3.07;;;20.10;83.00;;;;;;5095369;28;20423;-72
2022/01/28 07:39:34;;;;;;;3.73;2.77;;;20.10;83.30;;;;;;5095146;28;20472;-73
2022/01/28 07:42:00;;;;;;;5.40;2.77;;;20.20;83.30;;;;;;5088191;28;20174;-76
2022/01/28 07:44:26;;;;;;;6.53;3.10;;;20.20;84.20;;;;;;5073832;28;20238;-72
2022/01/28 07:46:51;;;;;;;4.00;2.50;;;20.20;83.40;;;;;;5074114;28;20206;-73
2022/01/28 07:49:17;;;;;;;6.47;2.67;;;20.20;83.20;;;;;;5072958;28;20290;-73
2022/01/28 07:51:43;;;;;;;8.40;2.67;;;20.10;82.80;;;;;;5073347;28;20202;-73
2022/01/28 07:54:09;;;;;;;4.50;2.77;;;20.20;82.70;;;;;;5092164;28;20257;-74
2022/01/28 07:56:35;;;;;;;5.80;2.80;;;20.20;82.50;;;;;;5073780;28;20417;-72
2022/01/28 07:59:00;;;;;;;4.43;2.47;;;20.20;82.20;;;;;;5073982;28;21246;-73
2022/01/28 08:01:26;;;;;;;3.00;2.17;;;20.20;82.20;;;;;;5073702;28;20674;-74
2022/01/28 08:03:52;;;;;;;6.00;2.77;;;20.10;82.00;;;;;;5072684;28;20175;-72
2022/01/28 08:06:17;;;;;;;5.80;2.70;;;20.10;81.80;;;;;;5074000;28;20183;-70
2022/01/28 08:08:43;;;;;;;4.07;2.63;;;20.20;81.90;;;;;;5073526;28;20210;-73
2022/01/28 08:11:09;;;;;;;4.93;2.80;;;20.10;81.20;;;;;;5091606;28;20215;-73
2022/01/28 08:13:34;;;;;;;3.87;2.70;;;20.20;81.50;;;;;;5073442;28;20567;-69
2022/01/28 08:16:00;;;;;;;4.00;2.57;;;20.20;81.30;;;;;;5073638;28;20180;-71
2022/01/28 08:18:26;;;;;;;3.40;2.50;;;20.20;80.80;;;;;;5075484;28;20187;-72
2022/01/28 08:20:52;;;;;;;4.33;2.40;;;20.20;81.00;;;;;;5077328;28;20257;-70
2022/01/28 08:23:18;;;;;;;4.83;2.90;;;20.20;80.90;;;;;;5077275;28;20183;-70
2022/01/28 08:25:44;;;;;;;4.70;2.23;;;20.20;80.90;;;;;;5077601;28;20425;-72
2022/01/28 08:28:10;;;;;;;7.23;2.30;;;20.20;80.90;;;;;;5076639;28;20457;-71
2022/01/28 08:30:38;;;;;;;3.43;2.27;;;20.20;80.60;;;;;;5077399;28;20425;-68
2022/01/28 08:33:05;;;;;;;3.13;2.27;;;20.20;80.40;;;;;;5076786;28;20355;-71
2022/01/28 08:35:33;;;;;;;3.70;2.30;;;20.20;80.50;;;;;;5077284;28;20790;-70
2022/01/28 08:38:00;;;;;;;4.07;2.40;;;20.30;80.40;;;;;;5076441;28;20406;-70
2022/01/28 08:40:28;;;;;;;3.70;2.20;;;20.30;80.70;;;;;;5076700;28;20767;-70
2022/01/28 08:42:54;;;;;;;3.97;2.50;;;20.30;80.80;;;;;;5095013;28;20401;-71
2022/01/28 08:45:20;;;;;;;3.50;2.03;;;20.30;80.40;;;;;;5077023;28;20424;-68
2022/01/28 08:47:46;;;;;;;4.10;2.17;;;20.30;80.90;;;;;;5077163;28;20409;-68
2022/01/28 08:50:12;;;;;;;3.27;2.23;;;20.40;81.00;;;;;;5077053;28;20533;-68
2022/01/28 08:52:38;;;;;;;4.77;2.47;;;20.40;81.10;;;;;;5076660;28;20506;-67
2022/01/28 08:55:05;;;;;;;3.57;1.90;;;20.40;81.20;;;;;;5077048;28;20172;-67
2022/01/28 08:57:30;;;;;;;13.27;2.47;;;20.40;80.30;;;;;;5076984;28;20179;-70
2022/01/28 08:59:56;;;;;;;4.60;2.20;;;20.40;80.90;;;;;;5077151;28;20430;-68
2022/01/28 09:02:22;;;;;;;3.83;2.00;;;20.40;80.00;;;;;;5076771;28;20629;-68
2022/01/28 09:04:48;;;;;;;14.63;3.00;;;20.30;80.10;;;;;;5076920;28;20913;-68
2022/01/28 09:07:14;;;;;;;5.30;2.63;;;20.30;80.60;;;;;;5076911;28;20654;-67
2022/01/28 09:09:48;;;;;;;7.67;2.20;;;20.40;81.00;;;;;;5076325;28;20203;-68
2022/01/28 09:12:35;;;;;;;10.30;2.10;;;20.40;81.70;;;;;;5076485;28;20171;-68
2022/01/28 09:15:02;;;;;;;12.83;2.50;;;20.40;65.40;;;;;;5077975;28;20438;-71
2022/01/28 09:17:29;;;;;;;4.73;2.10;;;20.50;66.40;;;;;;5076436;28;20410;-71
2022/01/28 09:19:55;;;;;;;26.00;3.23;;;20.30;58.90;;;;;;5076615;28;20461;-70
2022/01/28 09:22:21;;;;;;;14.23;2.40;;;20.30;53.50;;;;;;5076780;28;20417;-71
2022/01/28 09:24:46;;;;;;;11.87;2.67;;;18.70;64.70;;;;;;5077702;28;20732;-72
2022/01/28 09:27:12;;;;;;;5.37;2.30;;;19.40;64.50;;;;;;5077461;28;20175;-72
2022/01/28 09:29:38;;;;;;;9.10;2.40;;;19.70;64.40;;;;;;5094423;28;20589;-72
2022/01/28 09:32:04;;;;;;;9.13;2.70;;;19.90;63.80;;;;;;5077035;28;20735;-73
2022/01/28 09:34:29;;;;;;;8.10;1.80;;;20.10;64.20;;;;;;5077143;28;20168;-72
2022/01/28 09:36:56;;;;;;;6.03;2.20;;;20.10;63.60;;;;;;5077362;28;20410;-73
2022/01/28 09:39:21;;;;;;;6.00;2.27;;;20.20;63.80;;;;;;5076957;28;20176;-72
2022/01/28 09:41:48;;;;;;;5.70;2.00;;;20.10;63.10;;;;;;5076654;28;20441;-73
2022/01/28 09:44:17;;;;;;;8.57;2.10;;;20.20;64.00;;;;;;5076989;28;20258;-72
2022/01/28 09:46:43;;;;;;;4.00;1.70;;;20.20;63.70;;;;;;5076660;28;20406;-72
2022/01/28 09:49:11;;;;;;;3.67;1.80;;;20.20;63.50;;;;;;5076703;28;20962;-72
2022/01/28 09:51:37;;;;;;;5.90;1.97;;;20.10;63.20;;;;;;5076420;28;20241;-72
2022/01/28 09:54:03;;;;;;;9.23;2.37;;;20.20;62.90;;;;;;5076778;28;20906;-72
2022/01/28 09:56:29;;;;;;;8.07;2.10;;;20.20;63.90;;;;;;5076785;28;20200;-72
2022/01/28 09:58:55;;;;;;;4.50;1.80;;;20.20;62.90;;;;;;5076365;28;20179;-72
2022/01/28 10:01:21;;;;;;;2.83;1.50;;;20.20;63.90;;;;;;5076336;28;20441;-72
2022/01/28 10:04:04;;;;;;;5.63;2.10;;;20.20;62.90;;;;;;5076331;28;20168;-72
2022/01/28 10:06:34;;;;;;;2.70;1.60;;;20.20;63.40;;;;;;5076576;28;20226;-72
2022/01/28 10:09:06;;;;;;;5.10;1.70;;;20.20;63.50;;;;;;5076391;28;20995;-72
2022/01/28 10:11:32;;;;;;;3.53;1.80;;;20.20;62.30;;;;;;5075957;28;20433;-72
2022/01/28 10:14:08;;;;;;;3.87;1.63;;;20.20;62.80;;;;;;5076327;28;20409;-71
2022/01/28 10:16:34;;;;;;;3.57;2.10;;;20.20;62.70;;;;;;5076399;28;20181;-72
2022/01/28 10:19:02;;;;;;;4.83;1.67;;;20.20;62.80;;;;;;5076042;28;20425;-72
2022/01/28 10:21:37;;;;;;;3.93;1.70;;;20.20;63.30;;;;;;5076021;28;20422;-72
2022/01/28 10:24:12;;;;;;;2.10;1.60;;;20.30;63.50;;;;;;5076202;28;20420;-72
2022/01/28 10:26:49;;;;;;;4.00;1.50;;;20.30;63.10;;;;;;5076402;28;20982;-71
2022/01/28 10:29:25;;;;;;;2.33;1.30;;;20.30;62.50;;;;;;5076118;28;20464;-73
2022/01/28 10:32:04;;;;;;;3.03;1.60;;;20.30;62.40;;;;;;5075876;28;20412;-72
2022/01/28 10:34:35;;;;;;;4.37;1.60;;;20.30;62.70;;;;;;5075938;28;20406;-71
2022/01/28 10:37:11;;;;;;;2.30;1.30;;;20.40;61.20;;;;;;5076124;28;20819;-71
2022/01/28 10:39:57;;;;;;;3.57;1.70;;;20.40;60.40;;;;;;5090798;28;20417;-72
2022/01/28 10:42:43;;;;;;;2.60;1.53;;;20.40;60.00;;;;;;5094429;28;20462;-73
2022/01/28 10:45:12;;;;;;;2.67;1.50;;;20.40;57.90;;;;;;5095337;28;20412;-72
2022/01/28 10:47:42;;;;;;;2.10;1.30;;;20.40;58.30;;;;;;5093961;28;20417;-71
2022/01/28 10:50:22;;;;;;;3.60;1.50;;;20.40;58.80;;;;;;5094885;28;20439;-71
2022/01/28 10:53:00;;;;;;;4.30;1.40;;;20.40;57.90;;;;;;5094659;28;20404;-71
2022/01/28 10:55:27;;;;;;;2.20;1.33;;;20.50;62.70;;;;;;5094530;28;20408;-73
2022/01/28 10:58:14;;;;;;;2.20;1.10;;;20.50;63.60;;;;;;5094099;28;20413;-73
2022/01/28 11:00:45;;;;;;;2.43;1.37;;;20.50;62.90;;;;;;5095005;28;20435;-70
2022/01/28 11:03:14;;;;;;;3.30;1.20;;;20.50;63.40;;;;;;5112721;28;20435;-70
2022/01/28 11:05:41;;;;;;;3.50;1.53;;;20.50;63.50;;;;;;5094701;28;20416;-72
2022/01/28 11:08:08;;;;;;;3.37;1.33;;;20.50;63.40;;;;;;5094574;28;20464;-70
2022/01/28 11:10:34;;;;;;;4.47;1.33;;;20.50;62.70;;;;;;5093183;28;20440;-70
2022/01/28 11:13:01;;;;;;;3.23;1.20;;;20.60;63.60;;;;;;5094342;28;20428;-74
2022/01/28 11:15:28;;;;;;;4.70;1.37;;;20.60;59.70;;;;;;5094718;28;20412;-75
2022/01/28 11:17:54;;;;;;;3.00;1.33;;;20.60;59.40;;;;;;5094252;28;20409;-73
2022/01/28 11:20:23;;;;;;;2.10;1.30;;;20.60;59.00;;;;;;5094119;28;20453;-72
2022/01/28 11:23:19;;;;;;;5.37;1.33;;;20.60;59.20;;;;;;5093782;28;20425;-70
2022/01/28 11:25:54;;;;;;;3.53;1.63;;;20.50;59.10;;;;;;5086099;28;20894;-72
2022/01/28 11:28:20;;;;;;;2.33;1.60;;;20.50;58.30;;;;;;5073100;28;20948;-73
2022/01/28 11:30:48;;;;;;;4.03;1.20;;;20.50;59.50;;;;;;5074143;28;20449;-73
2022/01/28 11:33:15;;;;;;;2.33;1.37;;;20.70;60.10;;;;;;5073755;28;20266;-73
2022/01/28 11:35:59;;;;;;;2.37;1.40;;;20.80;55.90;;;;;;5073924;28;20413;-73
2022/01/28 11:38:24;;;;;;;3.23;1.30;;;20.70;55.60;;;;;;5073905;28;20428;-73
2022/01/28 11:40:51;;;;;;;2.97;1.70;;;20.90;56.40;;;;;;5074125;28;20518;-72
2022/01/28 11:43:19;;;;;;;2.20;1.40;;;21.10;56.50;;;;;;5074792;28;20183;-72
2022/01/28 11:45:45;;;;;;;2.10;1.23;;;21.20;56.00;;;;;;5094378;28;20451;-71
2022/01/28 11:48:11;;;;;;;4.13;1.27;;;21.30;56.40;;;;;;5094014;28;20853;-70
2022/01/28 11:50:37;;;;;;;2.60;1.33;;;21.40;56.40;;;;;;5093638;28;20686;-71
2022/01/28 11:53:24;;;;;;;3.43;1.30;;;21.40;55.40;;;;;;5093215;28;20171;-71
2022/01/28 11:56:01;;;;;;;7.80;1.40;;;21.50;56.30;;;;;;5094274;28;20619;-70
2022/01/28 11:58:51;;;;;;;3.30;1.40;;;21.40;55.50;;;;;;5094185;28;20811;-73
2022/01/28 12:01:22;;;;;;;1.83;1.23;;;21.50;56.00;;;;;;5093984;28;20875;-71
2022/01/28 12:03:48;;;;;;;3.70;1.20;;;21.40;56.10;;;;;;5093605;28;20436;-73
2022/01/28 12:06:15;;;;;;;3.07;1.40;;;21.40;56.30;;;;;;5094086;28;20905;-72
2022/01/28 12:08:43;;;;;;;6.03;1.47;;;21.40;56.20;;;;;;5112347;28;20195;-70
2022/01/28 12:11:10;;;;;;;3.40;1.20;;;21.40;56.30;;;;;;5094025;28;20494;-74
2022/01/28 12:13:52;;;;;;;3.10;1.30;;;21.30;53.40;;;;;;5093478;28;20489;-75
2022/01/28 12:16:30;;;;;;;3.07;1.20;;;21.30;53.30;;;;;;5092739;28;20437;-70
2022/01/28 12:18:57;;;;;;;1.60;1.00;;;21.30;53.10;;;;;;5093925;28;20424;-72
2022/01/28 12:21:31;;;;;;;1.83;1.20;;;21.30;54.70;;;;;;5093913;28;20990;-73
2022/01/28 12:24:19;;;;;;;2.00;1.30;;;21.30;54.90;;;;;;5093582;28;20773;-74
2022/01/28 12:27:11;;;;;;;2.00;1.40;;;21.40;54.70;;;;;;5093990;28;20769;-74
2022/01/28 12:29:44;;;;;;;3.03;1.40;;;21.50;54.70;;;;;;5093517;28;20948;-75
2022/01/28 12:32:11;;;;;;;3.60;1.73;;;21.40;52.60;;;;;;5093550;28;20508;-72
2022/01/28 12:34:46;;;;;;;1.77;1.17;;;21.30;54.60;;;;;;5093783;28;20417;-73
2022/01/28 12:37:12;;;;;;;3.53;1.20;;;21.20;53.00;;;;;;5093483;28;20472;-71
2022/01/28 12:39:43;;;;;;;1.60;1.20;;;21.20;54.60;;;;;;5093417;28;20504;-74
2022/01/28 12:42:22;;;;;;;7.50;1.60;;;21.20;54.80;;;;;;5093361;28;20462;-72
2022/01/28 12:44:58;;;;;;;8.00;2.07;;;21.20;52.60;;;;;;5093795;28;20413;-74
2022/01/28 12:47:25;;;;;;;2.73;1.10;;;21.10;52.60;;;;;;5112273;28;20547;-75
2022/01/28 12:50:03;;;;;;;2.33;1.43;;;21.20;54.30;;;;;;5093077;28;20467;-66
2022/01/28 12:52:34;;;;;;;2.10;1.17;;;21.20;54.40;;;;;;5092960;28;20411;-66
2022/01/28 12:55:00;;;;;;;3.00;1.40;;;21.20;54.50;;;;;;5093603;28;20474;-67
2022/01/28 12:57:26;;;;;;;3.20;1.30;;;21.20;54.60;;;;;;5111760;28;20401;-66
2022/01/28 12:59:52;;;;;;;4.30;1.30;;;21.20;54.80;;;;;;5092224;28;20253;-66
2022/01/28 13:02:19;;;;;;;1.83;1.17;;;21.20;54.80;;;;;;5110924;28;20167;-77
2022/01/28 13:10:05;;;;;;;7.57;1.67;;;21.20;54.00;;;;;;5115253;28;20488;-73
2022/01/28 13:12:32;;;;;;;4.53;1.50;;;21.20;53.20;;;;;;5114866;28;20544;-74
2022/01/28 13:15:11;;;;;;;4.00;1.40;;;21.10;54.20;;;;;;5115352;28;20409;-75
2022/01/28 13:17:39;;;;;;;10.33;1.50;;;21.10;53.30;;;;;;5115032;28;20757;-75
2022/01/28 13:20:11;;;;;;;5.17;1.80;;;21.10;53.90;;;;;;5096688;28;20511;-75
2022/01/28 13:22:39;;;;;;;4.10;1.77;;;21.10;53.70;;;;;;5114769;28;20497;-71
2022/01/28 13:25:24;;;;;;;3.50;1.23;;;21.10;53.70;;;;;;5114842;28;20412;-72
2022/01/28 13:27:57;;;;;;;5.27;2.00;;;21.10;53.50;;;;;;5114867;28;20529;-72
2022/01/28 13:30:24;;;;;;;5.60;1.67;;;21.00;53.50;;;;;;5114607;28;20588;-72
2022/01/28 13:32:52;;;;;;;4.97;1.73;;;21.00;58.00;;;;;;5096360;28;20463;-73
2022/01/28 13:35:23;;;;;;;4.97;1.47;;;21.00;57.70;;;;;;5114960;28;20894;-74
2022/01/28 13:38:00;;;;;;;3.57;1.43;;;21.00;57.90;;;;;;5114435;28;20409;-75
2022/01/28 13:40:31;;;;;;;3.30;1.50;;;21.00;57.70;;;;;;5095926;28;20969;-68
2022/01/28 13:43:13;;;;;;;3.80;1.53;;;20.90;57.00;;;;;;5095713;28;20474;-69
2022/01/28 13:45:55;;;;;;;4.40;1.40;;;21.00;56.80;;;;;;5096315;28;20530;-70
2022/01/28 13:48:34;;;;;;;6.60;1.57;;;21.00;57.00;;;;;;5096335;28;20460;-72
2022/01/28 13:51:17;;;;;;;4.43;1.40;;;21.00;57.40;;;;;;5095707;28;20443;-70
2022/01/28 13:56:29;;;;;;;2.77;1.30;;;21.00;56.30;;;;;;5114564;28;20401;-71
2022/01/28 13:58:55;;;;;;;4.03;1.67;;;21.00;57.10;;;;;;5096174;28;20409;-71
2022/01/28 14:01:23;;;;;;;10.70;1.70;;;21.00;57.40;;;;;;5095661;28;20432;-70
2022/01/28 14:03:55;;;;;;;4.40;1.70;;;21.10;57.30;;;;;;5095652;28;20413;-71
2022/01/28 14:06:26;;;;;;;1.93;1.40;;;21.20;57.10;;;;;;5113882;28;20413;-71
2022/01/28 14:08:56;;;;;;;7.53;1.50;;;21.10;56.90;;;;;;5095913;28;20464;-70
2022/01/28 14:11:28;;;;;;;6.93;1.57;;;21.00;56.40;;;;;;5095905;28;20445;-70
2022/01/28 14:14:30;;;;;;;3.03;1.80;;;21.00;56.10;;;;;;5095233;28;20881;-69
2022/01/28 14:16:58;;;;;;;4.33;1.30;;;21.00;56.60;;;;;;5094967;28;20408;-73